createdAt,value
2022-10-20T00:02:22.708Z,14.73
2022-10-20T00:04:51.421Z,12.23
2022-10-20T00:07:20.006Z,11.00
2022-10-20T00:09:49.866Z,9.87
2022-10-20T00:12:18.483Z,9.50
2022-10-20T00:14:48.117Z,11.20
2022-10-20T00:17:16.611Z,17.57
2022-10-20T00:19:48.743Z,10.10
2022-10-20T00:22:17.626Z,9.70
2022-10-20T00:24:46.184Z,17.67
2022-10-20T00:27:16.142Z,9.00
2022-10-20T00:29:44.742Z,10.40
2022-10-20T00:32:13.187Z,10.53
2022-10-20T00:34:41.787Z,10.37
2022-10-20T00:37:10.420Z,13.47
2022-10-20T00:39:39.071Z,11.57
2022-10-20T00:42:07.645Z,11.23
2022-10-20T00:44:52.703Z,10.17
2022-10-20T00:47:23.723Z,10.33
2022-10-20T00:49:52.624Z,11.30
2022-10-20T00:52:23.553Z,11.17
2022-10-20T00:54:52.222Z,13.87
2022-10-20T00:57:20.880Z,14.13
2022-10-20T00:59:51.040Z,12.07
2022-10-20T01:02:19.777Z,11.97
2022-10-20T01:04:48.575Z,11.90
2022-10-20T01:07:17.208Z,10.77
2022-10-20T01:09:45.875Z,11.17
2022-10-20T01:12:27.364Z,12.67
2022-10-20T01:15:04.757Z,11.03
2022-10-20T01:17:42.178Z,11.13
2022-10-20T01:20:55.989Z,11.50
2022-10-20T01:23:59.077Z,12.83
2022-10-20T01:26:50.946Z,12.07
2022-10-20T01:29:25.550Z,11.33
2022-10-20T01:32:01.579Z,13.37
2022-10-20T01:34:32.948Z,12.77
2022-10-20T01:37:04.894Z,11.93
2022-10-20T01:39:37.575Z,12.10
2022-10-20T01:42:08.993Z,9.77
2022-10-20T01:44:39.538Z,13.33
2022-10-20T01:47:09.377Z,11.90
2022-10-20T01:49:38.375Z,11.77
2022-10-20T01:52:06.930Z,10.63
2022-10-20T01:54:35.609Z,12.20
2022-10-20T01:57:19.666Z,12.80
2022-10-20T01:59:59.653Z,11.50
2022-10-20T02:02:40.301Z,11.07
2022-10-20T02:05:19.318Z,13.80
2022-10-20T02:07:47.870Z,10.67
2022-10-20T02:10:20.637Z,14.47
2022-10-20T02:12:51.859Z,10.93
2022-10-20T02:15:25.536Z,11.33
2022-10-20T02:17:58.344Z,12.63
2022-10-20T02:20:27.660Z,11.73
2022-10-20T02:22:57.237Z,11.33
2022-10-20T02:25:26.141Z,11.67
2022-10-20T02:27:55.997Z,11.50
2022-10-20T02:30:26.266Z,11.27
2022-10-20T02:32:54.898Z,11.90
2022-10-20T02:35:24.962Z,11.70
2022-10-20T02:37:53.556Z,11.90
2022-10-20T02:40:22.675Z,11.23
2022-10-20T02:42:51.383Z,15.83
2022-10-20T02:45:20.103Z,11.20
2022-10-20T02:47:50.251Z,10.70
2022-10-20T02:50:18.932Z,11.93
2022-10-20T02:52:47.672Z,11.63
2022-10-20T02:57:45.146Z,12.17
2022-10-20T03:00:15.232Z,12.27
2022-10-20T03:02:43.818Z,13.83
2022-10-20T03:05:13.688Z,12.43
2022-10-20T03:07:42.370Z,13.30
2022-10-20T03:10:11.186Z,17.47
2022-10-20T03:12:39.824Z,16.23
2022-10-20T03:15:08.944Z,14.17
2022-10-20T03:17:37.871Z,12.57
2022-10-20T03:20:07.950Z,10.67
2022-10-20T03:22:37.969Z,14.50
2022-10-20T03:25:07.137Z,14.10
2022-10-20T03:27:35.935Z,12.00
2022-10-20T03:30:05.184Z,12.93
2022-10-20T03:32:33.877Z,12.63
2022-10-20T03:35:02.681Z,13.23
2022-10-20T03:37:31.158Z,12.13
2022-10-20T03:40:00.944Z,13.30
2022-10-20T03:42:29.452Z,19.73
2022-10-20T03:44:58.037Z,13.57
2022-10-20T03:47:26.471Z,13.63
2022-10-20T03:49:55.097Z,14.70
2022-10-20T03:52:23.844Z,11.00
2022-10-20T03:54:52.558Z,12.07
2022-10-20T03:57:22.696Z,11.87
2022-10-20T03:59:51.684Z,11.30
2022-10-20T04:02:27.566Z,11.77
2022-10-20T04:04:56.328Z,12.33
2022-10-20T04:07:25.028Z,15.00
2022-10-20T04:09:56.190Z,11.73
2022-10-20T04:12:27.246Z,11.60
2022-10-20T04:14:56.181Z,12.70
2022-10-20T04:17:24.910Z,15.03
2022-10-20T04:19:53.621Z,13.47
2022-10-20T04:22:22.371Z,11.80
2022-10-20T04:24:51.146Z,13.33
2022-10-20T04:27:19.721Z,15.57
2022-10-20T04:29:49.933Z,14.23
2022-10-20T04:32:18.715Z,13.63
2022-10-20T04:34:47.664Z,15.30
2022-10-20T04:37:16.249Z,14.67
2022-10-20T04:39:44.883Z,11.97
2022-10-20T04:42:13.416Z,13.83
2022-10-20T04:44:43.504Z,11.17
2022-10-20T04:47:13.543Z,12.37
2022-10-20T04:49:42.388Z,13.40
2022-10-20T04:55:08.640Z,15.47
2022-10-20T04:57:37.420Z,13.27
2022-10-20T05:00:07.329Z,10.93
2022-10-20T05:02:37.650Z,15.07
2022-10-20T05:05:07.274Z,11.43
2022-10-20T05:07:36.111Z,13.47
2022-10-20T05:10:05.868Z,13.47
2022-10-20T05:12:34.851Z,12.63
2022-10-20T05:15:03.661Z,12.97
2022-10-20T05:17:32.460Z,13.13
2022-10-20T05:20:02.571Z,14.30
2022-10-20T05:22:32.015Z,11.23
2022-10-20T05:25:12.740Z,15.50
2022-10-20T05:27:49.279Z,13.30
2022-10-20T05:30:17.891Z,11.87
2022-10-20T05:32:47.226Z,11.63
2022-10-20T05:35:17.505Z,11.63
2022-10-20T05:37:46.154Z,12.30
2022-10-20T05:40:14.814Z,14.20
2022-10-20T05:42:43.530Z,11.87
2022-10-20T05:45:12.472Z,12.00
2022-10-20T05:47:42.669Z,14.47
2022-10-20T05:50:11.544Z,15.50
2022-10-20T05:52:41.197Z,11.13
2022-10-20T05:55:10.860Z,13.07
2022-10-20T05:57:39.421Z,10.60
2022-10-20T06:00:09.152Z,11.43
2022-10-20T06:02:40.144Z,13.03
2022-10-20T06:05:08.728Z,14.13
2022-10-20T06:07:37.281Z,13.77
2022-10-20T06:10:07.654Z,10.63
2022-10-20T06:12:36.967Z,12.80
2022-10-20T06:15:06.405Z,13.50
2022-10-20T06:17:34.908Z,12.27
2022-10-20T06:20:03.339Z,12.33
2022-10-20T06:22:31.662Z,13.37
2022-10-20T06:25:00.126Z,13.07
2022-10-20T06:27:29.877Z,10.43
2022-10-20T06:29:58.315Z,11.87
2022-10-20T06:32:26.706Z,10.17
2022-10-20T06:34:55.351Z,10.30
2022-10-20T06:37:23.869Z,12.37
2022-10-20T06:39:52.437Z,9.80
2022-10-20T06:42:21.202Z,14.97
2022-10-20T06:44:51.109Z,10.67
2022-10-20T06:47:19.494Z,12.63
2022-10-20T06:49:49.588Z,11.23
2022-10-20T06:52:18.076Z,13.50
2022-10-20T06:54:46.573Z,11.60
2022-10-20T06:57:15.227Z,9.57
2022-10-20T06:59:43.784Z,10.07
2022-10-20T07:02:13.582Z,12.97
2022-10-20T07:04:42.120Z,12.03
2022-10-20T07:07:10.551Z,10.77
2022-10-20T07:09:39.132Z,10.30
2022-10-20T07:12:07.539Z,9.73
2022-10-20T07:14:37.299Z,13.90
2022-10-20T07:17:05.831Z,10.97
2022-10-20T07:19:35.647Z,11.00
2022-10-20T07:22:04.026Z,14.07
2022-10-20T07:24:32.504Z,10.97
2022-10-20T07:27:00.958Z,13.13
2022-10-20T07:29:29.430Z,13.87
2022-10-20T07:31:59.979Z,15.07
2022-10-20T07:34:30.576Z,12.83
2022-10-20T07:37:00.651Z,13.17
2022-10-20T07:39:29.311Z,12.17
2022-10-20T07:41:58.193Z,14.93
2022-10-20T07:44:26.562Z,10.37
2022-10-20T07:46:55.078Z,9.73
2022-10-20T07:49:43.959Z,11.33
2022-10-20T07:52:16.674Z,11.40
2022-10-20T07:54:45.853Z,10.13
2022-10-20T07:57:14.353Z,9.10
2022-10-20T07:59:43.078Z,10.53
2022-10-20T08:02:13.679Z,12.37
2022-10-20T08:04:44.121Z,9.10
2022-10-20T08:07:13.986Z,9.90
2022-10-20T08:09:42.805Z,10.93
2022-10-20T08:12:11.361Z,7.80
2022-10-20T08:14:40.101Z,9.73
2022-10-20T08:17:11.534Z,8.93
2022-10-20T08:19:40.074Z,7.97
2022-10-20T08:22:08.784Z,15.83
2022-10-20T08:24:38.912Z,12.77
2022-10-20T08:27:07.987Z,11.20
2022-10-20T08:29:37.404Z,9.63
2022-10-20T08:32:06.046Z,7.90
2022-10-20T08:35:20.145Z,9.73
2022-10-20T08:38:14.002Z,10.30
2022-10-20T08:41:02.484Z,9.90
2022-10-20T08:44:23.264Z,11.60
2022-10-20T08:47:19.442Z,9.77
2022-10-20T08:49:47.962Z,8.53
2022-10-20T08:52:16.662Z,11.33
2022-10-20T08:54:48.384Z,8.80
2022-10-20T08:57:26.348Z,8.43
2022-10-20T08:59:56.380Z,11.33
2022-10-20T09:02:24.839Z,7.93
2022-10-20T09:04:56.176Z,6.87
2022-10-20T09:07:28.767Z,8.07
2022-10-20T09:10:05.730Z,9.07
2022-10-20T09:12:35.737Z,6.97
2022-10-20T09:15:04.575Z,9.27
2022-10-20T09:17:33.310Z,9.07
2022-10-20T09:20:02.727Z,12.80
2022-10-20T09:22:35.711Z,8.53
2022-10-20T09:25:05.666Z,6.77
2022-10-20T09:27:39.775Z,7.67
2022-10-20T09:30:17.620Z,9.00
2022-10-20T09:32:48.067Z,9.90
2022-10-20T09:35:22.775Z,9.47
2022-10-20T09:37:58.527Z,8.83
2022-10-20T09:40:27.836Z,9.03
2022-10-20T09:43:00.259Z,9.33
2022-10-20T09:45:30.808Z,10.53
2022-10-20T09:48:05.602Z,5.90
2022-10-20T09:50:36.612Z,10.07
2022-10-20T09:53:07.104Z,5.60
2022-10-20T09:55:42.085Z,5.60
2022-10-20T09:58:26.561Z,7.63
2022-10-20T10:01:00.281Z,5.17
2022-10-20T10:03:29.045Z,5.17
2022-10-20T10:05:58.584Z,7.47
2022-10-20T10:08:29.619Z,6.17
2022-10-20T10:11:00.362Z,7.57
2022-10-20T10:13:31.769Z,9.30
2022-10-20T10:16:06.670Z,6.60
2022-10-20T10:18:36.411Z,6.53
2022-10-20T10:21:07.279Z,7.90
2022-10-20T10:23:40.853Z,6.37
2022-10-20T10:26:33.915Z,6.40
2022-10-20T10:29:04.545Z,7.67
2022-10-20T10:31:34.131Z,8.37
2022-10-20T10:34:26.028Z,8.63
2022-10-20T10:36:55.063Z,4.77
2022-10-20T10:39:23.482Z,7.43
2022-10-20T10:42:02.689Z,4.80
2022-10-20T10:44:41.944Z,5.73
2022-10-20T10:47:34.232Z,6.17
2022-10-20T10:50:27.937Z,6.80
2022-10-20T10:53:03.304Z,6.63
2022-10-20T10:55:54.653Z,4.63
2022-10-20T10:58:36.169Z,6.67
2022-10-20T11:01:15.380Z,6.13
2022-10-20T11:03:59.819Z,6.60
2022-10-20T11:06:33.183Z,5.73
2022-10-20T11:09:13.106Z,6.17
2022-10-20T11:11:47.621Z,7.47
2022-10-20T11:14:33.788Z,4.83
2022-10-20T11:17:25.953Z,9.53
2022-10-20T11:24:01.437Z,5.53
2022-10-20T11:30:49.068Z,5.93
2022-10-20T11:40:51.133Z,4.93
2022-10-20T11:43:25.069Z,7.43
2022-10-20T11:45:56.180Z,9.67
2022-10-20T11:48:27.924Z,5.00
2022-10-20T11:51:11.782Z,5.57
2022-10-20T11:53:58.666Z,8.00
2022-10-20T11:56:40.390Z,4.23
2022-10-20T11:59:21.396Z,5.27
2022-10-20T12:02:04.625Z,6.63
2022-10-20T12:05:06.936Z,7.53
2022-10-20T12:08:17.471Z,7.40
2022-10-20T12:10:55.726Z,7.03
2022-10-20T12:13:32.240Z,9.80
2022-10-20T12:16:00.749Z,10.50
2022-10-20T12:18:30.472Z,5.50
2022-10-20T12:21:01.663Z,6.87
2022-10-20T12:24:05.608Z,7.27
2022-10-20T12:27:28.674Z,8.03
2022-10-20T12:30:05.050Z,6.20
2022-10-20T12:32:55.809Z,5.70
2022-10-20T12:36:00.439Z,9.13
2022-10-20T12:38:30.397Z,5.10
2022-10-20T12:41:02.358Z,5.67
2022-10-20T12:43:36.838Z,4.83
2022-10-20T12:46:10.269Z,6.13
2022-10-20T12:48:44.605Z,4.37
2022-10-20T12:51:21.223Z,4.87
2022-10-20T12:53:55.260Z,7.03
2022-10-20T12:57:14.476Z,7.00
2022-10-20T12:59:43.043Z,4.73
2022-10-20T13:02:50.072Z,4.73
2022-10-20T13:05:45.178Z,7.97
2022-10-20T13:08:31.726Z,6.63
2022-10-20T13:11:41.802Z,7.00
2022-10-20T13:14:35.735Z,5.43
2022-10-20T13:17:13.115Z,3.87
2022-10-20T13:19:47.592Z,3.60
2022-10-20T13:22:34.354Z,6.50
2022-10-20T13:25:04.976Z,4.87
2022-10-20T13:27:33.556Z,5.97
2022-10-20T13:30:02.184Z,6.63
2022-10-20T13:32:37.965Z,4.27
2022-10-20T13:35:19.975Z,5.50
2022-10-20T13:38:08.082Z,4.50
2022-10-20T13:41:34.349Z,5.07
2022-10-20T13:44:25.840Z,4.60
2022-10-20T13:51:06.861Z,7.67
2022-10-20T13:53:38.794Z,8.17
2022-10-20T13:56:10.621Z,4.40
2022-10-20T13:58:38.999Z,4.20
2022-10-20T14:01:16.723Z,7.73
2022-10-20T14:03:47.217Z,5.00
2022-10-20T14:06:34.988Z,5.33
2022-10-20T14:09:16.835Z,5.27
2022-10-20T14:11:46.389Z,5.73
2022-10-20T14:14:16.965Z,4.80
2022-10-20T14:16:52.002Z,5.53
2022-10-20T14:19:23.172Z,7.93
2022-10-20T14:21:56.074Z,5.00
2022-10-20T14:24:31.166Z,5.20
2022-10-20T14:27:01.365Z,5.73
2022-10-20T14:29:31.227Z,5.50
2022-10-20T14:31:59.998Z,4.10
2022-10-20T14:34:30.290Z,9.00
2022-10-20T14:37:00.406Z,8.10
2022-10-20T14:39:35.969Z,6.70
2022-10-20T14:42:06.744Z,5.53
2022-10-20T14:44:36.081Z,8.60
2022-10-20T14:47:08.018Z,5.83
2022-10-20T14:49:39.178Z,7.47
2022-10-20T14:52:22.307Z,4.23
2022-10-20T14:54:51.847Z,4.87
2022-10-20T14:57:33.417Z,5.53
2022-10-20T15:00:04.164Z,4.33
2022-10-20T15:02:38.482Z,5.63
2022-10-20T15:05:31.045Z,4.13
2022-10-20T15:08:09.449Z,4.53
2022-10-20T15:10:38.929Z,9.20
2022-10-20T15:13:07.386Z,6.30
2022-10-20T15:15:39.720Z,7.70
2022-10-20T15:18:14.817Z,8.07
2022-10-20T15:20:43.987Z,4.30
2022-10-20T15:23:15.313Z,4.70
2022-10-20T15:25:48.392Z,7.73
2022-10-20T15:28:31.612Z,7.07
2022-10-20T15:31:00.326Z,8.83
2022-10-20T15:33:29.073Z,5.63
2022-10-20T15:36:00.322Z,5.10
2022-10-20T15:38:30.472Z,6.77
2022-10-20T15:43:29.383Z,8.47
2022-10-20T15:45:58.056Z,8.00
2022-10-20T15:48:26.943Z,10.13
2022-10-20T15:51:40.040Z,8.67
2022-10-20T15:54:52.895Z,7.10
2022-10-20T15:57:52.574Z,5.63
2022-10-20T16:02:00.019Z,4.40
2022-10-20T16:04:34.196Z,5.03
2022-10-20T16:07:40.965Z,5.27
2022-10-20T16:10:40.416Z,4.37
2022-10-20T16:13:31.983Z,4.67
2022-10-20T16:19:31.667Z,8.20
2022-10-20T16:22:44.255Z,4.90
2022-10-20T16:25:25.499Z,4.43
2022-10-20T16:28:00.250Z,12.10
2022-10-20T16:30:29.288Z,6.80
2022-10-20T16:32:57.672Z,6.77
2022-10-20T16:35:26.088Z,5.47
2022-10-20T16:37:54.426Z,5.10
2022-10-20T16:40:24.285Z,6.77
2022-10-20T16:42:53.103Z,5.47
2022-10-20T16:47:50.134Z,5.00
2022-10-20T16:50:19.140Z,4.30
2022-10-20T16:52:47.674Z,4.70
2022-10-20T16:55:16.215Z,6.77
2022-10-20T16:57:45.763Z,7.50
2022-10-20T17:00:28.520Z,8.13
2022-10-20T17:03:36.521Z,9.93
2022-10-20T17:06:13.975Z,5.20
2022-10-20T17:08:48.779Z,7.20
2022-10-20T17:11:33.436Z,9.97
2022-10-20T17:18:39.766Z,8.13
2022-10-20T17:21:04.741Z,7.10
2022-10-20T17:23:57.931Z,6.57
2022-10-20T17:26:30.393Z,5.50
2022-10-20T17:29:00.898Z,5.67
2022-10-20T17:31:31.790Z,5.20
2022-10-20T17:34:00.689Z,9.80
2022-10-20T17:36:29.837Z,6.43
2022-10-20T17:39:00.296Z,7.20
2022-10-20T17:41:29.903Z,10.07
2022-10-20T17:44:00.758Z,10.53
2022-10-20T17:46:30.802Z,8.23
2022-10-20T17:49:01.509Z,6.43
2022-10-20T17:51:33.688Z,12.90
2022-10-20T17:54:04.539Z,5.53
2022-10-20T17:56:35.420Z,8.17
2022-10-20T17:59:06.500Z,6.33
2022-10-20T18:01:38.334Z,6.80
2022-10-20T18:04:08.396Z,9.70
2022-10-20T18:06:38.059Z,6.87
2022-10-20T18:09:10.906Z,7.13
2022-10-20T18:11:40.750Z,10.23
2022-10-20T18:14:09.267Z,6.90
2022-10-20T18:16:40.467Z,7.47
2022-10-20T18:19:09.610Z,9.57
2022-10-20T18:21:38.718Z,5.27
2022-10-20T18:24:08.739Z,6.33
2022-10-20T18:26:38.127Z,10.27
2022-10-20T18:29:08.628Z,7.27
2022-10-20T18:31:40.044Z,9.27
2022-10-20T18:34:10.330Z,7.47
2022-10-20T18:36:42.061Z,6.17
2022-10-20T18:39:15.036Z,7.40
2022-10-20T18:41:45.561Z,9.20
2022-10-20T18:44:15.802Z,9.53
2022-10-20T18:46:46.284Z,9.30
2022-10-20T18:49:16.928Z,10.20
2022-10-20T18:51:46.491Z,10.73
2022-10-20T18:54:15.455Z,7.30
2022-10-20T18:56:43.866Z,9.57
2022-10-20T18:59:16.183Z,8.10
2022-10-20T19:01:48.144Z,10.73
2022-10-20T19:04:16.603Z,7.93
2022-10-20T19:06:46.417Z,7.57
2022-10-20T19:09:16.919Z,7.50
2022-10-20T19:11:46.209Z,8.10
2022-10-20T19:14:15.410Z,7.47
2022-10-20T19:16:46.243Z,7.30
2022-10-20T19:19:14.716Z,6.83
2022-10-20T19:21:43.295Z,6.27
2022-10-20T19:24:14.814Z,8.97
2022-10-20T19:26:52.538Z,10.80
2022-10-20T19:29:31.435Z,8.83
2022-10-20T19:32:03.049Z,5.83
2022-10-20T19:34:33.238Z,7.93
2022-10-20T19:37:02.277Z,9.03
2022-10-20T19:39:36.890Z,7.87
2022-10-20T19:42:08.165Z,10.60
2022-10-20T19:44:37.086Z,8.60
2022-10-20T19:47:07.973Z,9.27
2022-10-20T19:49:38.061Z,8.77
2022-10-20T19:52:07.294Z,9.30
2022-10-20T19:54:36.141Z,9.70
2022-10-20T19:57:04.682Z,6.60
2022-10-20T19:59:33.663Z,8.53
2022-10-20T20:02:02.108Z,13.00
2022-10-20T20:04:31.792Z,8.00
2022-10-20T20:07:02.373Z,8.73
2022-10-20T20:09:31.007Z,10.63
2022-10-20T20:12:00.373Z,7.60
2022-10-20T20:14:29.196Z,8.63
2022-10-20T20:16:57.666Z,10.83
2022-10-20T20:19:26.187Z,11.27
2022-10-20T20:21:55.879Z,7.87
2022-10-20T20:24:24.363Z,10.83
2022-10-20T20:26:52.745Z,8.23
2022-10-20T20:32:48.701Z,8.40
2022-10-20T20:35:19.097Z,7.40
2022-10-20T20:37:48.807Z,9.10
2022-10-20T20:40:18.621Z,7.77
2022-10-20T20:42:47.515Z,6.67
2022-10-20T20:45:16.332Z,9.50
2022-10-20T20:47:46.757Z,7.97
2022-10-20T20:50:15.606Z,9.63
2022-10-20T20:52:44.432Z,14.00
2022-10-20T20:55:14.442Z,9.37
2022-10-20T20:57:42.976Z,8.53
2022-10-20T21:00:13.216Z,11.83
2022-10-20T21:02:45.056Z,10.83
2022-10-20T21:05:13.614Z,8.30
2022-10-20T21:07:42.032Z,10.43
2022-10-20T21:10:10.888Z,12.90
2022-10-20T21:12:41.032Z,9.87
2022-10-20T21:15:10.486Z,9.17
2022-10-20T21:17:38.918Z,8.00
2022-10-20T21:20:08.392Z,11.67
2022-10-20T21:22:37.126Z,8.93
2022-10-20T21:25:06.574Z,7.80
2022-10-20T21:27:35.395Z,11.33
2022-10-20T21:30:05.568Z,6.87
2022-10-20T21:32:34.663Z,9.33
2022-10-20T21:35:03.643Z,7.03
2022-10-20T21:37:32.202Z,6.10
2022-10-20T21:40:00.722Z,7.37
2022-10-20T21:42:29.154Z,7.20
2022-10-20T21:45:03.391Z,6.97
2022-10-20T21:47:34.612Z,8.33
2022-10-20T21:50:03.087Z,14.30
2022-10-20T21:52:31.788Z,10.50
2022-10-20T21:55:00.493Z,8.77
2022-10-20T21:57:29.358Z,9.50
2022-10-20T21:59:58.091Z,7.53
2022-10-20T22:02:26.674Z,9.67
2022-10-20T22:04:56.990Z,7.07
2022-10-20T22:07:25.853Z,6.37
2022-10-20T22:09:55.046Z,8.63
2022-10-20T22:12:24.055Z,11.10
2022-10-20T22:14:52.454Z,10.20
2022-10-20T22:17:21.749Z,7.60
2022-10-20T22:19:50.918Z,8.17
2022-10-20T22:22:20.836Z,7.87
2022-10-20T22:24:49.898Z,7.90
2022-10-20T22:27:31.343Z,8.73
2022-10-20T22:30:09.009Z,8.23
2022-10-20T22:32:37.927Z,7.57
2022-10-20T22:35:08.608Z,7.20
2022-10-20T22:37:38.767Z,7.43
2022-10-20T22:40:09.578Z,7.63
2022-10-20T22:42:38.498Z,7.67
2022-10-20T22:45:08.574Z,7.60
2022-10-20T22:47:37.292Z,7.20
2022-10-20T22:50:06.671Z,8.53
2022-10-20T22:52:36.280Z,9.30
2022-10-20T22:55:07.903Z,6.43
2022-10-20T22:57:36.818Z,7.30
2022-10-20T23:00:07.025Z,8.00
2022-10-20T23:02:36.112Z,7.00
2022-10-20T23:05:05.479Z,6.00
2022-10-20T23:07:36.349Z,7.10
2022-10-20T23:10:07.938Z,7.83
2022-10-20T23:12:37.073Z,6.73
2022-10-20T23:15:06.905Z,7.20
2022-10-20T23:17:36.261Z,6.97
2022-10-20T23:20:06.633Z,10.20
2022-10-20T23:22:35.355Z,6.50
2022-10-20T23:25:03.848Z,9.33
2022-10-20T23:27:35.740Z,7.13
2022-10-20T23:30:05.429Z,6.93
2022-10-20T23:32:33.817Z,11.40
2022-10-20T23:35:02.362Z,10.43
2022-10-20T23:37:30.784Z,8.03
2022-10-20T23:39:59.202Z,9.47
2022-10-20T23:42:27.610Z,13.03
2022-10-20T23:44:57.349Z,9.20
2022-10-20T23:47:25.793Z,8.30
2022-10-20T23:49:54.170Z,11.50
2022-10-20T23:52:22.793Z,9.83
2022-10-20T23:54:51.318Z,8.40
2022-10-20T23:57:19.639Z,7.70
2022-10-20T23:59:48.061Z,8.97
